sensor_id;sensor_type;location;lat;lon;timestamp;pressure;altitude;pressure_sealevel;temperature;humidity
5651;BME280;40241;52.684;9.758;2023-12-07T00:01:03;101506.38;;;1.76;66.47
5651;BME280;40241;52.684;9.758;2023-12-07T00:03:28;101505.97;;;1.78;66.56
5651;BME280;40241;52.684;9.758;2023-12-07T00:05:54;101514.16;;;1.78;66.46
5651;BME280;40241;52.684;9.758;2023-12-07T00:08:19;101511.44;;;1.78;66.38
5651;BME280;40241;52.684;9.758;2023-12-07T00:10:44;101505.97;;;1.78;66.56
5651;BME280;40241;52.684;9.758;2023-12-07T00:13:10;101505.97;;;1.78;66.45
5651;BME280;40241;52.684;9.758;2023-12-07T00:15:36;101508.25;;;1.79;66.50
5651;BME280;40241;52.684;9.758;2023-12-07T00:18:02;101509.03;;;1.80;66.53
5651;BME280;40241;52.684;9.758;2023-12-07T00:20:28;101515.25;;;1.80;66.52
5651;BME280;40241;52.684;9.758;2023-12-07T00:22:54;101518.72;;;1.81;66.30
5651;BME280;40241;52.684;9.758;2023-12-07T00:25:20;101526.16;;;1.80;66.24
5651;BME280;40241;52.684;9.758;2023-12-07T00:27:45;101519.50;;;1.81;66.75
5651;BME280;40241;52.684;9.758;2023-12-07T00:30:11;101525.28;;;1.83;66.66
5651;BME280;40241;52.684;9.758;2023-12-07T00:32:37;101515.91;;;1.85;66.50
5651;BME280;40241;52.684;9.758;2023-12-07T00:35:03;101520.16;;;1.86;66.42
5651;BME280;40241;52.684;9.758;2023-12-07T00:37:28;101520.16;;;1.86;66.62
5651;BME280;40241;52.684;9.758;2023-12-07T00:39:53;101531.84;;;1.86;66.67
5651;BME280;40241;52.684;9.758;2023-12-07T00:42:19;101537.63;;;1.88;66.34
5651;BME280;40241;52.684;9.758;2023-12-07T00:44:44;101539.91;;;1.90;66.14
5651;BME280;40241;52.684;9.758;2023-12-07T00:47:09;101547.75;;;1.88;66.30
5651;BME280;40241;52.684;9.758;2023-12-07T00:49:39;101532.94;;;1.89;66.39
5651;BME280;40241;52.684;9.758;2023-12-07T00:52:08;101529.00;;;1.90;66.56
5651;BME280;40241;52.684;9.758;2023-12-07T00:54:33;101530.53;;;1.91;66.22
5651;BME280;40241;52.684;9.758;2023-12-07T00:56:59;101535.22;;;1.90;66.38
5651;BME280;40241;52.684;9.758;2023-12-07T00:59:24;101536.78;;;1.91;66.47
5651;BME280;40241;52.684;9.758;2023-12-07T01:01:50;101562.19;;;1.88;66.60
5651;BME280;40241;52.684;9.758;2023-12-07T01:04:15;101543.75;;;1.92;66.18
5651;BME280;40241;52.684;9.758;2023-12-07T01:06:41;101552.38;;;1.91;66.44
5651;BME280;40241;52.684;9.758;2023-12-07T01:09:06;101547.69;;;1.91;66.38
5651;BME280;40241;52.684;9.758;2023-12-07T01:11:31;101553.91;;;1.92;66.36
5651;BME280;40241;52.684;9.758;2023-12-07T01:13:57;101550.75;;;1.93;66.40
5651;BME280;40241;52.684;9.758;2023-12-07T01:16:22;101555.75;;;1.95;66.73
5651;BME280;40241;52.684;9.758;2023-12-07T01:18:47;101561.97;;;1.95;66.33
5651;BME280;40241;52.684;9.758;2023-12-07T01:21:13;101564.25;;;1.97;66.11
5651;BME280;40241;52.684;9.758;2023-12-07T01:23:38;101566.22;;;1.96;66.27
5651;BME280;40241;52.684;9.758;2023-12-07T01:26:03;101565.47;;;1.96;66.42
5651;BME280;40241;52.684;9.758;2023-12-07T01:28:29;101571.69;;;1.96;66.26
5651;BME280;40241;52.684;9.758;2023-12-07T01:30:54;101571.69;;;1.96;66.15
5651;BME280;40241;52.684;9.758;2023-12-07T01:33:20;101575.19;;;1.97;66.33
5651;BME280;40241;52.684;9.758;2023-12-07T01:35:45;101585.69;;;1.98;66.43
5651;BME280;40241;52.684;9.758;2023-12-07T01:38:11;101579.88;;;1.96;66.17
5651;BME280;40241;52.684;9.758;2023-12-07T01:40:37;101593.88;;;1.98;66.27
5651;BME280;40241;52.684;9.758;2023-12-07T01:43:02;101593.09;;;1.98;66.35
5651;BME280;40241;52.684;9.758;2023-12-07T01:45:28;101593.88;;;1.98;66.12
5651;BME280;40241;52.684;9.758;2023-12-07T01:47:53;101585.69;;;1.98;66.53
5651;BME280;40241;52.684;9.758;2023-12-07T01:50:20;101593.88;;;1.98;66.41
5651;BME280;40241;52.684;9.758;2023-12-07T01:52:52;101593.50;;;1.96;66.56
5651;BME280;40241;52.684;9.758;2023-12-07T01:55:20;101599.75;;;1.97;66.45
5651;BME280;40241;52.684;9.758;2023-12-07T01:57:46;101592.78;;;1.96;66.42
5651;BME280;40241;52.684;9.758;2023-12-07T02:00:13;101594.72;;;1.95;66.35
5651;BME280;40241;52.684;9.758;2023-12-07T02:02:39;101601.28;;;1.98;66.54
5651;BME280;40241;52.684;9.758;2023-12-07T02:05:04;101599.31;;;1.98;66.43
5651;BME280;40241;52.684;9.758;2023-12-07T02:07:30;101599.31;;;1.98;66.37
5651;BME280;40241;52.684;9.758;2023-12-07T02:09:57;101599.31;;;1.98;66.35
5651;BME280;40241;52.684;9.758;2023-12-07T02:12:23;101593.88;;;1.98;66.43
5651;BME280;40241;52.684;9.758;2023-12-07T02:14:50;101601.28;;;1.98;66.48
5651;BME280;40241;52.684;9.758;2023-12-07T02:17:34;101602.78;;;1.99;66.39
5651;BME280;40241;52.684;9.758;2023-12-07T02:22:55;101611.00;;;1.99;66.25
5651;BME280;40241;52.684;9.758;2023-12-07T02:25:24;101611.75;;;1.99;66.51
5651;BME280;40241;52.684;9.758;2023-12-07T02:27:51;101616.88;;;1.97;66.48
5651;BME280;40241;52.684;9.758;2023-12-07T02:30:16;101605.63;;;1.95;66.56
5651;BME280;40241;52.684;9.758;2023-12-07T02:32:44;101611.88;;;1.96;66.51
5651;BME280;40241;52.684;9.758;2023-12-07T02:35:10;101607.50;;;1.98;66.41
5651;BME280;40241;52.684;9.758;2023-12-07T02:37:44;101602.47;;;1.97;66.53
5651;BME280;40241;52.684;9.758;2023-12-07T02:40:11;101610.25;;;1.98;66.23
5651;BME280;40241;52.684;9.758;2023-12-07T02:42:40;101609.88;;;1.96;66.44
5651;BME280;40241;52.684;9.758;2023-12-07T02:45:08;101613.06;;;1.95;66.53
5651;BME280;40241;52.684;9.758;2023-12-07T02:47:34;101623.19;;;1.94;66.34
5651;BME280;40241;52.684;9.758;2023-12-07T02:50:00;101609.56;;;1.94;66.47
5651;BME280;40241;52.684;9.758;2023-12-07T02:52:25;101613.50;;;1.93;66.31
5651;BME280;40241;52.684;9.758;2023-12-07T02:54:50;101613.50;;;1.93;66.61
5651;BME280;40241;52.684;9.758;2023-12-07T02:57:16;101607.28;;;1.93;66.21
5651;BME280;40241;52.684;9.758;2023-12-07T02:59:42;101616.22;;;1.93;66.36
5651;BME280;40241;52.684;9.758;2023-12-07T03:02:08;101620.91;;;1.93;66.18
5651;BME280;40241;52.684;9.758;2023-12-07T03:04:33;101624.84;;;1.92;66.40
5651;BME280;40241;52.684;9.758;2023-12-07T03:06:58;101626.38;;;1.93;66.26
5651;BME280;40241;52.684;9.758;2023-12-07T03:09:24;101636.50;;;1.92;66.06
5651;BME280;40241;52.684;9.758;2023-12-07T03:11:50;101629.88;;;1.93;66.46
5651;BME280;40241;52.684;9.758;2023-12-07T03:14:15;101633.78;;;1.92;66.58
5651;BME280;40241;52.684;9.758;2023-12-07T03:16:41;101633.78;;;1.92;66.36
5651;BME280;40241;52.684;9.758;2023-12-07T03:19:06;101646.69;;;1.92;66.59
5651;BME280;40241;52.684;9.758;2023-12-07T03:21:31;101628.44;;;1.89;66.13
5651;BME280;40241;52.684;9.758;2023-12-07T03:23:56;101628.88;;;1.87;66.17
5651;BME280;40241;52.684;9.758;2023-12-07T03:26:22;101630.06;;;1.86;66.42
5651;BME280;40241;52.684;9.758;2023-12-07T03:28:47;101632.78;;;1.86;66.48
5651;BME280;40241;52.684;9.758;2023-12-07T03:31:12;101631.59;;;1.87;66.32
5651;BME280;40241;52.684;9.758;2023-12-07T03:33:38;101633.56;;;1.87;66.35
5651;BME280;40241;52.684;9.758;2023-12-07T03:36:04;101640.97;;;1.86;66.62
5651;BME280;40241;52.684;9.758;2023-12-07T03:38:29;101639.78;;;1.87;66.36
5651;BME280;40241;52.684;9.758;2023-12-07T03:40:54;101621.88;;;1.86;66.38
5651;BME280;40241;52.684;9.758;2023-12-07T03:43:20;101634.41;;;1.83;66.41
5651;BME280;40241;52.684;9.758;2023-12-07T03:45:46;101630.91;;;1.83;66.30
5651;BME280;40241;52.684;9.758;2023-12-07T03:48:12;101641.84;;;1.83;66.24
5651;BME280;40241;52.684;9.758;2023-12-07T03:50:37;101633.66;;;1.83;66.63
5651;BME280;40241;52.684;9.758;2023-12-07T03:53:02;101639.88;;;1.83;66.38
5651;BME280;40241;52.684;9.758;2023-12-07T03:55:28;101640.66;;;1.84;66.37
5651;BME280;40241;52.684;9.758;2023-12-07T03:57:53;101653.09;;;1.85;66.29
5651;BME280;40241;52.684;9.758;2023-12-07T04:00:18;101653.97;;;1.82;66.50
5651;BME280;40241;52.684;9.758;2023-12-07T04:02:44;101656.69;;;1.82;66.46
5651;BME280;40241;52.684;9.758;2023-12-07T04:05:09;101655.47;;;1.83;66.31
5651;BME280;40241;52.684;9.758;2023-12-07T04:07:34;101664.88;;;1.82;66.20
5651;BME280;40241;52.684;9.758;2023-12-07T04:10:00;101657.88;;;1.81;66.45
5651;BME280;40241;52.684;9.758;2023-12-07T04:12:25;101648.94;;;1.80;66.51
5651;BME280;40241;52.684;9.758;2023-12-07T04:14:50;101655.91;;;1.81;66.56
5651;BME280;40241;52.684;9.758;2023-12-07T04:17:17;101655.13;;;1.81;66.37
5651;BME280;40241;52.684;9.758;2023-12-07T04:19:42;101660.59;;;1.81;66.26
5651;BME280;40241;52.684;9.758;2023-12-07T04:22:07;101666.50;;;1.79;65.94
5651;BME280;40241;52.684;9.758;2023-12-07T04:24:33;101666.50;;;1.79;66.41
5651;BME280;40241;52.684;9.758;2023-12-07T04:26:58;101666.50;;;1.79;66.45
5651;BME280;40241;52.684;9.758;2023-12-07T04:29:23;101670.75;;;1.80;66.08
5651;BME280;40241;52.684;9.758;2023-12-07T04:31:49;101678.19;;;1.80;66.27
5651;BME280;40241;52.684;9.758;2023-12-07T04:34:14;101681.69;;;1.80;66.18
5651;BME280;40241;52.684;9.758;2023-12-07T04:36:39;101671.50;;;1.81;66.39
5651;BME280;40241;52.684;9.758;2023-12-07T04:39:05;101678.94;;;1.80;66.53
5651;BME280;40241;52.684;9.758;2023-12-07T04:41:30;101674.22;;;1.81;66.50
5651;BME280;40241;52.684;9.758;2023-12-07T04:43:55;101670.31;;;1.82;66.49
5651;BME280;40241;52.684;9.758;2023-12-07T04:46:20;101671.50;;;1.81;66.39
5651;BME280;40241;52.684;9.758;2023-12-07T04:48:46;101670.31;;;1.82;66.33
5651;BME280;40241;52.684;9.758;2023-12-07T04:51:11;101671.84;;;1.83;66.42
5651;BME280;40241;52.684;9.758;2023-12-07T04:53:36;101681.25;;;1.82;66.40
5651;BME280;40241;52.684;9.758;2023-12-07T04:56:02;101674.56;;;1.83;66.30
5651;BME280;40241;52.684;9.758;2023-12-07T04:58:27;101671.84;;;1.83;66.39
5651;BME280;40241;52.684;9.758;2023-12-07T05:00:53;101667.59;;;1.82;66.46
5651;BME280;40241;52.684;9.758;2023-12-07T05:03:18;101669.09;;;1.83;66.70
5651;BME280;40241;52.684;9.758;2023-12-07T05:05:43;101662.91;;;1.82;66.23
5651;BME280;40241;52.684;9.758;2023-12-07T05:08:08;101666.06;;;1.81;66.29
5651;BME280;40241;52.684;9.758;2023-12-07T05:10:34;101666.81;;;1.81;66.38
5651;BME280;40241;52.684;9.758;2023-12-07T05:12:59;101657.47;;;1.82;66.16
5651;BME280;40241;52.684;9.758;2023-12-07T05:15:25;101665.63;;;1.82;66.37
5651;BME280;40241;52.684;9.758;2023-12-07T05:17:50;101661.38;;;1.81;66.23
5651;BME280;40241;52.684;9.758;2023-12-07T05:20:15;101676.56;;;1.82;66.22
5651;BME280;40241;52.684;9.758;2023-12-07T05:22:41;101675.78;;;1.82;66.05
5651;BME280;40241;52.684;9.758;2023-12-07T05:25:06;101668.03;;;1.80;66.26
5651;BME280;40241;52.684;9.758;2023-12-07T05:27:32;101671.50;;;1.81;66.13
5651;BME280;40241;52.684;9.758;2023-12-07T05:29:57;101671.94;;;1.79;66.51
5651;BME280;40241;52.684;9.758;2023-12-07T05:32:22;101673.91;;;1.79;66.45
5651;BME280;40241;52.684;9.758;2023-12-07T05:34:48;101674.69;;;1.79;66.06
5651;BME280;40241;52.684;9.758;2023-12-07T05:37:13;101670.44;;;1.78;66.26
5651;BME280;40241;52.684;9.758;2023-12-07T05:39:38;101675.13;;;1.78;66.24
5651;BME280;40241;52.684;9.758;2023-12-07T05:42:04;101674.69;;;1.79;66.05
5651;BME280;40241;52.684;9.758;2023-12-07T05:44:29;101665.81;;;1.75;66.28
5651;BME280;40241;52.684;9.758;2023-12-07T05:46:55;101678.63;;;1.78;66.56
5651;BME280;40241;52.684;9.758;2023-12-07T05:49:22;101682.53;;;1.77;66.12
5651;BME280;40241;52.684;9.758;2023-12-07T05:51:48;101678.25;;;1.76;66.11
5651;BME280;40241;52.684;9.758;2023-12-07T05:54:14;101681.41;;;1.75;66.26
5651;BME280;40241;52.684;9.758;2023-12-07T05:56:39;101687.66;;;1.75;66.27
5651;BME280;40241;52.684;9.758;2023-12-07T05:59:05;101679.91;;;1.74;65.97
5651;BME280;40241;52.684;9.758;2023-12-07T06:01:31;101676.84;;;1.72;66.25
5651;BME280;40241;52.684;9.758;2023-12-07T06:03:57;101683.03;;;1.72;66.10
5651;BME280;40241;52.684;9.758;2023-12-07T06:06:22;101675.31;;;1.71;66.30
5651;BME280;40241;52.684;9.758;2023-12-07T06:08:48;101681.59;;;1.68;66.21
5651;BME280;40241;52.684;9.758;2023-12-07T06:11:13;101686.31;;;1.67;66.39
5651;BME280;40241;52.684;9.758;2023-12-07T06:13:39;101682.81;;;1.67;66.37
5651;BME280;40241;52.684;9.758;2023-12-07T06:16:04;101684.00;;;1.66;66.32
5651;BME280;40241;52.684;9.758;2023-12-07T06:18:30;101684.88;;;1.63;66.14
5651;BME280;40241;52.684;9.758;2023-12-07T06:20:55;101691.50;;;1.62;66.24
5651;BME280;40241;52.684;9.758;2023-12-07T06:23:21;101696.63;;;1.60;66.10
5651;BME280;40241;52.684;9.758;2023-12-07T06:25:46;101693.91;;;1.60;66.16
5651;BME280;40241;52.684;9.758;2023-12-07T06:28:12;101699.03;;;1.58;66.29
5651;BME280;40241;52.684;9.758;2023-12-07T06:30:37;101698.34;;;1.54;66.30
5651;BME280;40241;52.684;9.758;2023-12-07T06:33:03;101704.97;;;1.53;66.39
5651;BME280;40241;52.684;9.758;2023-12-07T06:35:28;101706.09;;;1.55;66.46
5651;BME280;40241;52.684;9.758;2023-12-07T06:37:54;101704.13;;;1.56;66.44
5651;BME280;40241;52.684;9.758;2023-12-07T06:40:19;101707.63;;;1.56;66.47
5651;BME280;40241;52.684;9.758;2023-12-07T06:42:45;101706.75;;;1.59;66.57
5651;BME280;40241;52.684;9.758;2023-12-07T06:45:11;101713.31;;;1.62;66.46
5651;BME280;40241;52.684;9.758;2023-12-07T06:47:39;101714.44;;;1.64;66.82
5651;BME280;40241;52.684;9.758;2023-12-07T06:50:05;101730.38;;;1.66;66.45
5651;BME280;40241;52.684;9.758;2023-12-07T06:52:33;101727.13;;;1.71;66.57
5651;BME280;40241;52.684;9.758;2023-12-07T06:54:59;101733.03;;;1.69;66.57
5651;BME280;40241;52.684;9.758;2023-12-07T06:57:24;101724.41;;;1.71;66.66
5651;BME280;40241;52.684;9.758;2023-12-07T06:59:50;101730.63;;;1.71;66.63
5651;BME280;40241;52.684;9.758;2023-12-07T07:02:15;101734.47;;;1.74;66.53
5651;BME280;40241;52.684;9.758;2023-12-07T07:04:40;101731.75;;;1.74;66.75
5651;BME280;40241;52.684;9.758;2023-12-07T07:07:06;101723.56;;;1.74;66.66
5651;BME280;40241;52.684;9.758;2023-12-07T07:09:31;101730.53;;;1.75;66.68
5651;BME280;40241;52.684;9.758;2023-12-07T07:11:57;101731.75;;;1.74;66.69
5651;BME280;40241;52.684;9.758;2023-12-07T07:14:22;101729.00;;;1.74;66.50
5651;BME280;40241;52.684;9.758;2023-12-07T07:16:47;101732.91;;;1.73;66.15
5651;BME280;40241;52.684;9.758;2023-12-07T07:19:13;101736.41;;;1.73;66.45
5651;BME280;40241;52.684;9.758;2023-12-07T07:21:38;101735.66;;;1.73;66.46
5651;BME280;40241;52.684;9.758;2023-12-07T07:24:04;101731.41;;;1.72;66.33
5651;BME280;40241;52.684;9.758;2023-12-07T07:26:29;101734.88;;;1.72;66.57
5651;BME280;40241;52.684;9.758;2023-12-07T07:28:55;101730.63;;;1.71;66.09
5651;BME280;40241;52.684;9.758;2023-12-07T07:31:20;101740.75;;;1.71;66.53
5651;BME280;40241;52.684;9.758;2023-12-07T07:33:46;101732.59;;;1.71;66.39
5651;BME280;40241;52.684;9.758;2023-12-07T07:36:14;101738.03;;;1.71;66.38
5651;BME280;40241;52.684;9.758;2023-12-07T07:38:42;101733.34;;;1.71;66.31
5651;BME280;40241;52.684;9.758;2023-12-07T07:41:09;101741.53;;;1.71;66.05
5651;BME280;40241;52.684;9.758;2023-12-07T07:43:34;101741.09;;;1.73;66.38
5651;BME280;40241;52.684;9.758;2023-12-07T07:46:00;101760.97;;;1.73;66.66
5651;BME280;40241;52.684;9.758;2023-12-07T07:48:26;101752.00;;;1.73;66.25
5651;BME280;40241;52.684;9.758;2023-12-07T07:50:51;101751.56;;;1.74;66.52
5651;BME280;40241;52.684;9.758;2023-12-07T07:53:17;101746.91;;;1.75;66.24
5651;BME280;40241;52.684;9.758;2023-12-07T07:55:42;101747.66;;;1.75;66.50
5651;BME280;40241;52.684;9.758;2023-12-07T07:58:08;101744.94;;;1.75;66.53
5651;BME280;40241;52.684;9.758;2023-12-07T08:00:33;101755.84;;;1.75;66.30
5651;BME280;40241;52.684;9.758;2023-12-07T08:02:59;101749.97;;;1.77;66.17
5651;BME280;40241;52.684;9.758;2023-12-07T08:05:25;101750.28;;;1.79;66.18
5651;BME280;40241;52.684;9.758;2023-12-07T08:07:51;101751.84;;;1.80;66.30
5651;BME280;40241;52.684;9.758;2023-12-07T08:10:16;101756.53;;;1.79;66.42
5651;BME280;40241;52.684;9.758;2023-12-07T08:12:42;101769.50;;;1.75;66.19
5651;BME280;40241;52.684;9.758;2023-12-07T08:15:09;101764.38;;;1.77;66.63
5651;BME280;40241;52.684;9.758;2023-12-07T08:17:39;101769.06;;;1.77;66.42
5651;BME280;40241;52.684;9.758;2023-12-07T08:20:06;101767.88;;;1.78;66.61
5651;BME280;40241;52.684;9.758;2023-12-07T08:22:32;101761.97;;;1.79;66.40
5651;BME280;40241;52.684;9.758;2023-12-07T08:24:58;101767.00;;;1.81;66.21
5651;BME280;40241;52.684;9.758;2023-12-07T08:27:23;101777.06;;;1.84;66.66
5651;BME280;40241;52.684;9.758;2023-12-07T08:29:48;101766.06;;;1.88;66.22
5651;BME280;40241;52.684;9.758;2023-12-07T08:32:14;101766.38;;;1.90;66.11
5651;BME280;40241;52.684;9.758;2023-12-07T08:34:40;101765.53;;;1.93;66.18
5651;BME280;40241;52.684;9.758;2023-12-07T08:37:06;101768.59;;;1.95;66.57
5651;BME280;40241;52.684;9.758;2023-12-07T08:39:31;101769.72;;;1.97;66.24
5651;BME280;40241;52.684;9.758;2023-12-07T08:41:56;101768.09;;;2.00;66.49
5651;BME280;40241;52.684;9.758;2023-12-07T08:44:21;101775.06;;;2.01;66.24
5651;BME280;40241;52.684;9.758;2023-12-07T08:46:47;101770.38;;;2.01;66.60
5651;BME280;40241;52.684;9.758;2023-12-07T08:49:13;101770.38;;;2.01;66.48
5651;BME280;40241;52.684;9.758;2023-12-07T08:51:38;101768.00;;;2.03;66.66
5651;BME280;40241;52.684;9.758;2023-12-07T08:54:03;101768.31;;;2.05;66.41
5651;BME280;40241;52.684;9.758;2023-12-07T08:56:30;101763.97;;;2.08;66.70
5651;BME280;40241;52.684;9.758;2023-12-07T08:58:55;101773.25;;;2.10;66.53
5651;BME280;40241;52.684;9.758;2023-12-07T09:01:21;101779.06;;;2.12;66.73
5651;BME280;40241;52.684;9.758;2023-12-07T09:03:46;101783.00;;;2.11;66.61
5651;BME280;40241;52.684;9.758;2023-12-07T09:06:11;101775.56;;;2.12;66.69
5651;BME280;40241;52.684;9.758;2023-12-07T09:08:37;101801.22;;;2.14;66.74
5651;BME280;40241;52.684;9.758;2023-12-07T09:11:02;101781.69;;;2.16;66.52
5651;BME280;40241;52.684;9.758;2023-12-07T09:13:29;101783.22;;;2.17;66.53
5651;BME280;40241;52.684;9.758;2023-12-07T09:15:54;101788.25;;;2.18;66.51
5651;BME280;40241;52.684;9.758;2023-12-07T09:18:19;101785.09;;;2.20;66.60
5651;BME280;40241;52.684;9.758;2023-12-07T09:20:45;101791.66;;;2.22;66.66
5651;BME280;40241;52.684;9.758;2023-12-07T09:23:13;101800.53;;;2.26;66.25
5651;BME280;40241;52.684;9.758;2023-12-07T09:25:40;101796.59;;;2.27;66.52
5651;BME280;40241;52.684;9.758;2023-12-07T09:28:06;101795.75;;;2.30;66.88
5651;BME280;40241;52.684;9.758;2023-12-07T09:30:31;101797.25;;;2.31;66.54
5651;BME280;40241;52.684;9.758;2023-12-07T09:32:59;101812.81;;;2.34;66.44
5651;BME280;40241;52.684;9.758;2023-12-07T09:35:24;101804.97;;;2.36;66.77
5651;BME280;40241;52.684;9.758;2023-12-07T09:37:49;101812.38;;;2.36;66.80
5651;BME280;40241;52.684;9.758;2023-12-07T09:40:18;101809.25;;;2.37;66.45
5651;BME280;40241;52.684;9.758;2023-12-07T09:42:45;101810.75;;;2.38;66.46
5651;BME280;40241;52.684;9.758;2023-12-07T09:45:11;101812.31;;;2.39;66.46
5651;BME280;40241;52.684;9.758;2023-12-07T09:47:37;101805.19;;;2.42;66.58
5651;BME280;40241;52.684;9.758;2023-12-07T09:50:04;101809.03;;;2.44;66.52
5651;BME280;40241;52.684;9.758;2023-12-07T09:52:30;101810.56;;;2.45;66.76
5651;BME280;40241;52.684;9.758;2023-12-07T09:54:56;101813.19;;;2.49;66.93
5651;BME280;40241;52.684;9.758;2023-12-07T09:57:22;101807.72;;;2.49;66.85
5651;BME280;40241;52.684;9.758;2023-12-07T09:59:48;101799.13;;;2.50;66.74
5651;BME280;40241;52.684;9.758;2023-12-07T10:02:13;101803.38;;;2.51;66.66
5651;BME280;40241;52.684;9.758;2023-12-07T10:04:39;101793.22;;;2.52;66.68
5651;BME280;40241;52.684;9.758;2023-12-07T10:07:05;101792.78;;;2.53;66.36
5651;BME280;40241;52.684;9.758;2023-12-07T10:09:34;101789.19;;;2.57;66.71
5651;BME280;40241;52.684;9.758;2023-12-07T10:12:03;101793.78;;;2.60;66.49
5651;BME280;40241;52.684;9.758;2023-12-07T10:14:29;101783.19;;;2.62;66.73
5651;BME280;40241;52.684;9.758;2023-12-07T10:16:55;101785.50;;;2.63;66.66
5651;BME280;40241;52.684;9.758;2023-12-07T10:19:22;101790.84;;;2.67;67.03
5651;BME280;40241;52.684;9.758;2023-12-07T10:21:48;101786.47;;;2.69;66.69
5651;BME280;40241;52.684;9.758;2023-12-07T10:24:16;101800.03;;;2.73;66.82
5651;BME280;40241;52.684;9.758;2023-12-07T10:26:43;101785.97;;;2.74;66.77
5651;BME280;40241;52.684;9.758;2023-12-07T10:29:09;101801.47;;;2.77;66.50
5651;BME280;40241;52.684;9.758;2023-12-07T10:31:36;101793.59;;;2.79;66.76
5651;BME280;40241;52.684;9.758;2023-12-07T10:34:02;101797.44;;;2.82;66.57
5651;BME280;40241;52.684;9.758;2023-12-07T10:36:28;101788.38;;;2.85;66.61
5651;BME280;40241;52.684;9.758;2023-12-07T10:38:53;101788.72;;;2.87;67.00
5651;BME280;40241;52.684;9.758;2023-12-07T10:41:21;101794.81;;;2.91;66.66
5651;BME280;40241;52.684;9.758;2023-12-07T10:44:07;101792.75;;;2.95;66.63
5651;BME280;40241;52.684;9.758;2023-12-07T10:46:33;101790.00;;;2.95;66.46
5651;BME280;40241;52.684;9.758;2023-12-07T10:49:01;101782.47;;;2.99;66.72
5651;BME280;40241;52.684;9.758;2023-12-07T10:51:30;101776.16;;;3.02;67.00
5651;BME280;40241;52.684;9.758;2023-12-07T10:53:57;101775.28;;;3.05;66.74
5651;BME280;40241;52.684;9.758;2023-12-07T10:56:38;101781.06;;;3.07;67.04
5651;BME280;40241;52.684;9.758;2023-12-07T10:59:06;101777.78;;;3.12;66.65
5651;BME280;40241;52.684;9.758;2023-12-07T11:01:33;101774.94;;;3.15;66.72
5651;BME280;40241;52.684;9.758;2023-12-07T11:04:00;101776.06;;;3.18;66.76
5651;BME280;40241;52.684;9.758;2023-12-07T11:06:26;101770.91;;;3.20;66.57
5651;BME280;40241;52.684;9.758;2023-12-07T11:08:58;101773.06;;;3.25;66.42
5651;BME280;40241;52.684;9.758;2023-12-07T11:11:46;101774.63;;;3.26;66.76
5651;BME280;40241;52.684;9.758;2023-12-07T11:14:11;101767.97;;;3.27;67.02
5651;BME280;40241;52.684;9.758;2023-12-07T11:16:40;101767.06;;;3.30;66.45
5651;BME280;40241;52.684;9.758;2023-12-07T11:22:05;101768.94;;;3.33;66.47
5651;BME280;40241;52.684;9.758;2023-12-07T11:24:31;101766.53;;;3.35;66.97
5651;BME280;40241;52.684;9.758;2023-12-07T11:26:56;101765.31;;;3.36;66.98
5651;BME280;40241;52.684;9.758;2023-12-07T11:29:24;101758.63;;;3.37;66.75
5651;BME280;40241;52.684;9.758;2023-12-07T11:31:51;101752.31;;;3.40;66.79
5651;BME280;40241;52.684;9.758;2023-12-07T11:34:36;101749.13;;;3.42;66.55
5651;BME280;40241;52.684;9.758;2023-12-07T11:37:02;101745.16;;;3.43;66.59
5651;BME280;40241;52.684;9.758;2023-12-07T11:39:29;101737.28;;;3.45;66.51
5651;BME280;40241;52.684;9.758;2023-12-07T11:41:55;101735.63;;;3.47;66.79
5651;BME280;40241;52.684;9.758;2023-12-07T11:44:30;101734.00;;;3.50;66.87
5651;BME280;40241;52.684;9.758;2023-12-07T11:46:57;101740.25;;;3.50;66.82
5651;BME280;40241;52.684;9.758;2023-12-07T11:49:23;101756.97;;;3.52;66.85
5651;BME280;40241;52.684;9.758;2023-12-07T11:51:48;101734.22;;;3.55;66.86
5651;BME280;40241;52.684;9.758;2023-12-07T11:54:14;101734.97;;;3.56;66.69
5651;BME280;40241;52.684;9.758;2023-12-07T11:56:41;101736.94;;;3.55;66.60
5651;BME280;40241;52.684;9.758;2023-12-07T11:59:06;101739.25;;;3.57;66.61
5651;BME280;40241;52.684;9.758;2023-12-07T12:01:32;101740.75;;;3.58;66.48
5651;BME280;40241;52.684;9.758;2023-12-07T12:03:58;101727.06;;;3.58;66.49
5651;BME280;40241;52.684;9.758;2023-12-07T12:06:24;101738.78;;;3.58;66.85
5651;BME280;40241;52.684;9.758;2023-12-07T12:08:49;101730.59;;;3.58;66.62
5651;BME280;40241;52.684;9.758;2023-12-07T12:11:14;101740.00;;;3.57;66.87
5651;BME280;40241;52.684;9.758;2023-12-07T12:13:40;101738.78;;;3.58;66.84
5651;BME280;40241;52.684;9.758;2023-12-07T12:16:06;101731.34;;;3.59;66.53
5651;BME280;40241;52.684;9.758;2023-12-07T12:18:33;101732.91;;;3.60;66.67
5651;BME280;40241;52.684;9.758;2023-12-07T12:20:58;101725.09;;;3.58;66.49
5651;BME280;40241;52.684;9.758;2023-12-07T12:23:24;101736.06;;;3.58;66.63
5651;BME280;40241;52.684;9.758;2023-12-07T12:25:49;101727.06;;;3.58;66.92
5651;BME280;40241;52.684;9.758;2023-12-07T12:28:17;101722.38;;;3.58;66.81
5651;BME280;40241;52.684;9.758;2023-12-07T12:30:47;101725.09;;;3.58;66.81
5651;BME280;40241;52.684;9.758;2023-12-07T12:33:13;101722.06;;;3.56;66.85
5651;BME280;40241;52.684;9.758;2023-12-07T12:35:39;101712.66;;;3.57;66.76
5651;BME280;40241;52.684;9.758;2023-12-07T12:38:09;101712.31;;;3.55;66.44
5651;BME280;40241;52.684;9.758;2023-12-07T12:40:35;101707.28;;;3.54;66.37
5651;BME280;40241;52.684;9.758;2023-12-07T12:43:00;101703.34;;;3.55;66.52
5651;BME280;40241;52.684;9.758;2023-12-07T12:45:25;101699.53;;;3.52;66.81
5651;BME280;40241;52.684;9.758;2023-12-07T12:47:51;101701.81;;;3.54;66.30
5651;BME280;40241;52.684;9.758;2023-12-07T12:50:40;101701.38;;;3.55;66.49
5651;BME280;40241;52.684;9.758;2023-12-07T12:53:08;101699.53;;;3.52;66.57
5651;BME280;40241;52.684;9.758;2023-12-07T12:55:36;101696.47;;;3.50;66.66
5651;BME280;40241;52.684;9.758;2023-12-07T12:58:02;101691.31;;;3.52;66.59
5651;BME280;40241;52.684;9.758;2023-12-07T13:00:29;101687.81;;;3.52;66.60
5651;BME280;40241;52.684;9.758;2023-12-07T13:02:55;101680.03;;;3.50;66.57
5651;BME280;40241;52.684;9.758;2023-12-07T13:05:20;101681.56;;;3.51;66.56
5651;BME280;40241;52.684;9.758;2023-12-07T13:07:46;101693.72;;;3.50;66.81
5651;BME280;40241;52.684;9.758;2023-12-07T13:10:16;101692.19;;;3.49;66.63